createdAt,value
2022-10-08T00:00:44.160Z,1004.61
2022-10-08T00:01:44.139Z,1004.59
2022-10-08T00:02:44.119Z,1004.57
2022-10-08T00:03:44.110Z,1004.56
2022-10-08T00:04:44.091Z,1004.58
2022-10-08T00:05:44.087Z,1004.62
2022-10-08T00:06:44.096Z,1004.58
2022-10-08T00:07:44.077Z,1004.53
2022-10-08T00:08:44.061Z,1004.53
2022-10-08T00:09:44.050Z,1004.53
2022-10-08T00:10:44.063Z,1004.5
2022-10-08T00:11:44.017Z,1004.51
2022-10-08T00:12:44.020Z,1004.52
2022-10-08T00:13:44.002Z,1004.5
2022-10-08T00:14:43.987Z,1004.51
2022-10-08T00:15:44.020Z,1004.5
2022-10-08T00:16:43.971Z,1004.55
2022-10-08T00:17:43.969Z,1004.55
2022-10-08T00:18:43.942Z,1004.53
2022-10-08T00:19:43.953Z,1004.51
2022-10-08T00:20:44.002Z,1004.48
2022-10-08T00:21:43.928Z,1004.48
2022-10-08T00:22:43.968Z,1004.51
2022-10-08T00:23:44.903Z,1004.48
2022-10-08T00:24:43.877Z,1004.46
2022-10-08T00:25:43.865Z,1004.51
2022-10-08T00:26:43.867Z,1004.46
2022-10-08T00:27:43.859Z,1004.46
2022-10-08T00:28:43.846Z,1004.43
2022-10-08T00:29:43.824Z,1004.44
2022-10-08T00:30:43.813Z,1004.47
2022-10-08T00:31:43.855Z,1004.41
2022-10-08T00:32:43.817Z,1004.41
2022-10-08T00:33:43.807Z,1004.37
2022-10-08T00:34:43.808Z,1004.4
2022-10-08T00:35:43.760Z,1004.34
2022-10-08T00:36:43.795Z,1004.38
2022-10-08T00:37:43.759Z,1004.34
2022-10-08T00:38:43.727Z,1004.35
2022-10-08T00:39:43.738Z,1004.32
2022-10-08T00:40:43.734Z,1004.35
2022-10-08T00:41:43.727Z,1004.35
2022-10-08T00:42:43.687Z,1004.35
2022-10-08T00:43:43.690Z,1004.34
2022-10-08T00:44:43.699Z,1004.38
2022-10-08T00:45:43.664Z,1004.3
2022-10-08T00:46:43.646Z,1004.29
2022-10-08T00:47:43.638Z,1004.3
2022-10-08T00:48:43.634Z,1004.31
2022-10-08T00:49:43.625Z,1004.3
2022-10-08T00:50:43.616Z,1004.29
2022-10-08T00:51:43.608Z,1004.28
2022-10-08T00:52:43.602Z,1004.22
2022-10-08T00:53:43.582Z,1004.25
2022-10-08T00:54:43.566Z,1004.3
2022-10-08T00:55:43.560Z,1004.21
2022-10-08T00:56:43.568Z,1004.19
2022-10-08T00:57:43.562Z,1004.2
2022-10-08T00:58:43.562Z,1004.1
2022-10-08T00:59:43.561Z,1004.23
2022-10-08T01:00:43.508Z,1004.24
2022-10-08T01:01:43.487Z,1004.17
2022-10-08T01:02:43.483Z,1004.19
2022-10-08T01:03:43.477Z,1004.21
2022-10-08T01:04:43.466Z,1004.22
2022-10-08T01:05:43.456Z,1004.21
2022-10-08T01:06:43.476Z,1004.18
2022-10-08T01:07:43.441Z,1004.18
2022-10-08T01:08:43.450Z,1004.16
2022-10-08T01:09:43.435Z,1004.11
2022-10-08T01:10:43.400Z,1004.13
2022-10-08T01:11:43.420Z,1004.09
2022-10-08T01:12:43.390Z,1004.1
2022-10-08T01:13:43.371Z,1004.17
2022-10-08T01:14:43.350Z,1004.11
2022-10-08T01:15:43.357Z,1004.08
2022-10-08T01:16:43.362Z,1004.17
2022-10-08T01:17:43.364Z,1004.13
2022-10-08T01:18:43.315Z,1004.13
2022-10-08T01:19:43.305Z,1004.06
2022-10-08T01:20:43.295Z,1004.03
2022-10-08T01:21:43.301Z,1004.06
2022-10-08T01:22:43.302Z,1004.15
2022-10-08T01:23:43.266Z,1004.06
2022-10-08T01:24:43.252Z,1004.09
2022-10-08T01:25:43.237Z,1004.04
2022-10-08T01:26:43.226Z,1004.11
2022-10-08T01:27:43.240Z,1004.07
2022-10-08T01:28:43.212Z,1004.06
2022-10-08T01:29:43.218Z,1004.07
2022-10-08T01:30:43.187Z,1004
2022-10-08T01:31:43.201Z,1004.07
2022-10-08T01:32:43.190Z,1004.07
2022-10-08T01:33:43.278Z,1004.11
2022-10-08T01:34:43.245Z,1004.07
2022-10-08T01:35:43.153Z,1004.08
2022-10-08T01:36:43.128Z,1004.08
2022-10-08T01:37:43.173Z,1004.06
2022-10-08T01:38:43.111Z,1004.09
2022-10-08T01:39:44.101Z,1004.14
2022-10-08T01:40:43.101Z,1004.14
2022-10-08T01:41:43.131Z,1004.1
2022-10-08T01:42:43.085Z,1004.03
2022-10-08T01:43:43.087Z,1004.05
2022-10-08T01:44:43.080Z,1004.05
2022-10-08T01:45:43.061Z,1004.07
2022-10-08T01:46:43.053Z,1004.11
2022-10-08T01:47:43.027Z,1004.07
2022-10-08T01:48:43.014Z,1004.07
2022-10-08T01:49:43.039Z,1004.14
2022-10-08T01:50:43.046Z,1004.1
2022-10-08T01:51:43.013Z,1004.01
2022-10-08T01:52:42.985Z,1004.1
2022-10-08T01:53:42.961Z,1004.02
2022-10-08T01:54:43.034Z,1004.05
2022-10-08T01:55:43.052Z,1004.05
2022-10-08T01:56:43.952Z,1004.12
2022-10-08T01:57:42.948Z,1004.1
2022-10-08T01:58:42.904Z,1004.03
2022-10-08T01:59:42.895Z,1004.1
2022-10-08T02:00:42.890Z,1004.06
2022-10-08T02:01:42.902Z,1004.12
2022-10-08T02:02:42.890Z,1004.06
2022-10-08T02:03:42.863Z,1004.04
2022-10-08T02:04:42.881Z,1004.12
2022-10-08T02:05:42.852Z,1004.05
2022-10-08T02:06:42.829Z,1004.05
2022-10-08T02:07:42.814Z,1004.12
2022-10-08T02:08:42.812Z,1004.11
2022-10-08T02:09:42.801Z,1004.08
2022-10-08T02:10:42.792Z,1004.08
2022-10-08T02:11:42.801Z,1004.12
2022-10-08T02:12:42.778Z,1004.11
2022-10-08T02:13:42.815Z,1004.03
2022-10-08T02:14:42.749Z,1004.03
2022-10-08T02:15:42.732Z,1004.01
2022-10-08T02:16:42.727Z,1004.06
2022-10-08T02:17:42.703Z,1004.09
2022-10-08T02:18:42.691Z,1004.05
2022-10-08T02:19:42.673Z,1004.03
2022-10-08T02:20:42.679Z,1004.07
2022-10-08T02:21:42.660Z,1004
2022-10-08T02:22:42.641Z,1004.05
2022-10-08T02:23:42.638Z,1004.09
2022-10-08T02:24:42.640Z,1004.12
2022-10-08T02:25:42.675Z,1004.11
2022-10-08T02:26:42.624Z,1004.11
2022-10-08T02:27:42.605Z,1004.11
2022-10-08T02:28:42.653Z,1004.11
2022-10-08T02:29:42.616Z,1004.1
2022-10-08T02:30:42.585Z,1004.17
2022-10-08T02:31:42.552Z,1004.13
2022-10-08T02:32:42.549Z,1004.12
2022-10-08T02:33:42.533Z,1004.02
2022-10-08T02:34:42.516Z,1004.07
2022-10-08T02:35:42.513Z,1004.05
2022-10-08T02:36:42.517Z,1004.03
2022-10-08T02:37:42.492Z,1004
2022-10-08T02:38:42.475Z,1004.02
2022-10-08T02:39:42.461Z,1004.02
2022-10-08T02:40:42.455Z,1004
2022-10-08T02:41:42.451Z,1004.03
2022-10-08T02:42:42.428Z,1004.03
2022-10-08T02:43:42.440Z,1004
2022-10-08T02:44:42.432Z,1003.98
2022-10-08T02:45:42.407Z,1004
2022-10-08T02:46:42.415Z,1004
2022-10-08T02:47:42.469Z,1003.95
2022-10-08T02:48:42.399Z,1003.97
2022-10-08T02:49:42.415Z,1004.02
2022-10-08T02:50:42.374Z,1003.93
2022-10-08T02:51:42.334Z,1004.03
2022-10-08T02:52:51.060Z,1004.01
2022-10-08T02:53:49.937Z,1004.01
2022-10-08T02:54:43.328Z,1003.94
2022-10-08T02:55:42.300Z,1003.96
2022-10-08T02:56:42.308Z,1003.94
2022-10-08T02:57:42.286Z,1004
2022-10-08T02:58:42.280Z,1003.96
2022-10-08T02:59:42.288Z,1003.97
2022-10-08T03:00:42.320Z,1003.99
2022-10-08T03:01:42.241Z,1004.01
2022-10-08T03:02:42.227Z,1003.98
2022-10-08T03:03:42.225Z,1004.02
2022-10-08T03:04:42.237Z,1004
2022-10-08T03:05:42.182Z,1004.05
2022-10-08T03:06:42.178Z,1004
2022-10-08T03:07:42.186Z,1004.01
2022-10-08T03:08:42.154Z,1004
2022-10-08T03:09:42.148Z,1004.04
2022-10-08T03:10:42.144Z,1003.94
2022-10-08T03:11:42.117Z,1004.01
2022-10-08T03:12:42.108Z,1003.98
2022-10-08T03:13:42.098Z,1004
2022-10-08T03:14:42.093Z,1003.98
2022-10-08T03:15:42.136Z,1003.96
2022-10-08T03:16:42.079Z,1003.96
2022-10-08T03:17:42.075Z,1003.97
2022-10-08T03:18:42.168Z,1003.91
2022-10-08T03:19:42.064Z,1003.92
2022-10-08T03:20:42.503Z,1003.97
2022-10-08T03:21:42.046Z,1003.96
2022-10-08T03:22:42.026Z,1003.87
2022-10-08T03:23:42.017Z,1003.92
2022-10-08T03:24:42.001Z,1003.85
2022-10-08T03:25:41.976Z,1003.99
2022-10-08T03:26:41.997Z,1003.91
2022-10-08T03:27:41.971Z,1003.91
2022-10-08T03:28:41.947Z,1003.97
2022-10-08T03:29:41.936Z,1003.97
2022-10-08T03:30:41.925Z,1003.94
2022-10-08T03:31:41.941Z,1003.99
2022-10-08T03:32:41.952Z,1003.96
2022-10-08T03:33:41.902Z,1003.98
2022-10-08T03:34:41.886Z,1003.93
2022-10-08T03:35:41.891Z,1003.96
2022-10-08T03:36:41.868Z,1003.99
2022-10-08T03:37:41.892Z,1004.01
2022-10-08T03:38:41.864Z,1004.07
2022-10-08T03:39:41.837Z,1003.96
2022-10-08T03:40:41.815Z,1004
2022-10-08T03:41:41.809Z,1003.99
2022-10-08T03:42:41.803Z,1004.07
2022-10-08T03:43:41.785Z,1003.94
2022-10-08T03:44:41.773Z,1003.94
2022-10-08T03:45:41.777Z,1003.93
2022-10-08T03:46:41.769Z,1003.93
2022-10-08T03:47:41.821Z,1003.96
2022-10-08T03:48:41.730Z,1004.02
2022-10-08T03:49:41.730Z,1004.01
2022-10-08T03:50:41.724Z,1004.04
2022-10-08T03:51:41.726Z,1004.03
2022-10-08T03:52:41.688Z,1004.04
2022-10-08T03:53:41.719Z,1004.05
2022-10-08T03:54:41.730Z,1004.05
2022-10-08T03:55:41.669Z,1003.99
2022-10-08T03:56:41.651Z,1003.99
2022-10-08T03:57:41.636Z,1003.96
2022-10-08T03:58:41.626Z,1003.97
2022-10-08T03:59:41.631Z,1003.99
2022-10-08T04:00:41.608Z,1004.01
2022-10-08T04:01:42.608Z,1003.99
2022-10-08T04:02:41.623Z,1004.06
2022-10-08T04:03:41.607Z,1003.98
2022-10-08T04:04:41.582Z,1003.96
2022-10-08T04:05:41.563Z,1003.94
2022-10-08T04:06:41.544Z,1003.97
2022-10-08T04:07:41.542Z,1003.99
2022-10-08T04:08:41.542Z,1003.99
2022-10-08T04:09:41.534Z,1004.01
2022-10-08T04:10:41.518Z,1003.91
2022-10-08T04:11:41.513Z,1003.98
2022-10-08T04:12:41.494Z,1003.96
2022-10-08T04:13:41.487Z,1003.99
2022-10-08T04:14:41.486Z,1004.01
2022-10-08T04:15:41.448Z,1003.96
2022-10-08T04:16:41.456Z,1004.06
2022-10-08T04:17:41.512Z,1004.01
2022-10-08T04:18:41.457Z,1004.08
2022-10-08T04:19:41.465Z,1004.04
2022-10-08T04:20:41.476Z,1004.06
2022-10-08T04:21:41.440Z,1004.07
2022-10-08T04:22:41.416Z,1004.03
2022-10-08T04:23:41.369Z,1004.05
2022-10-08T04:24:41.354Z,1004.03
2022-10-08T04:25:41.358Z,1004.07
2022-10-08T04:26:41.361Z,1004.09
2022-10-08T04:27:41.341Z,1004.1
2022-10-08T04:28:41.353Z,1004.09
2022-10-08T04:29:41.331Z,1004.11
2022-10-08T04:30:41.297Z,1004.15
2022-10-08T04:31:41.293Z,1004.11
2022-10-08T04:32:41.278Z,1004.13
2022-10-08T04:33:41.306Z,1004.09
2022-10-08T04:34:41.265Z,1004.11
2022-10-08T04:35:41.335Z,1004.08
2022-10-08T04:36:41.232Z,1004.15
2022-10-08T04:37:41.230Z,1004.08
2022-10-08T04:38:41.230Z,1004.09
2022-10-08T04:39:41.213Z,1004.09
2022-10-08T04:40:41.196Z,1004.1
2022-10-08T04:41:41.194Z,1004.17
2022-10-08T04:42:41.202Z,1004.13
2022-10-08T04:43:41.171Z,1004.12
2022-10-08T04:44:41.153Z,1004.16
2022-10-08T04:45:41.132Z,1004.15
2022-10-08T04:46:41.117Z,1004.19
2022-10-08T04:47:41.164Z,1004.22
2022-10-08T04:48:42.107Z,1004.2
2022-10-08T04:49:41.128Z,1004.22
2022-10-08T04:50:41.100Z,1004.26
2022-10-08T04:51:41.101Z,1004.18
2022-10-08T04:52:41.061Z,1004.23
2022-10-08T04:53:41.061Z,1004.23
2022-10-08T04:54:41.072Z,1004.21
2022-10-08T04:55:41.040Z,1004.21
2022-10-08T04:56:41.033Z,1004.19
2022-10-08T04:57:41.005Z,1004.19
2022-10-08T04:58:41.024Z,1004.18
2022-10-08T04:59:40.995Z,1004.19
2022-10-08T05:00:40.970Z,1004.22
2022-10-08T05:01:40.976Z,1004.21
2022-10-08T05:02:40.992Z,1004.25
2022-10-08T05:03:40.949Z,1004.29
2022-10-08T05:04:40.957Z,1004.25
2022-10-08T05:05:40.942Z,1004.26
2022-10-08T05:06:40.914Z,1004.3
2022-10-08T05:07:40.906Z,1004.34
2022-10-08T05:08:40.902Z,1004.29
2022-10-08T05:09:40.892Z,1004.32
2022-10-08T05:10:40.881Z,1004.32
2022-10-08T05:11:40.869Z,1004.31
2022-10-08T05:12:40.866Z,1004.38
2022-10-08T05:13:41.833Z,1004.39
2022-10-08T05:14:40.825Z,1004.46
2022-10-08T05:15:49.396Z,1004.4
2022-10-08T05:16:48.361Z,1004.44
2022-10-08T05:17:40.790Z,1004.41
2022-10-08T05:18:40.776Z,1004.44
2022-10-08T05:19:40.772Z,1004.48
2022-10-08T05:20:40.758Z,1004.52
2022-10-08T05:21:40.754Z,1004.5
2022-10-08T05:22:40.738Z,1004.49
2022-10-08T05:23:40.728Z,1004.55
2022-10-08T05:24:40.716Z,1004.51
2022-10-08T05:25:40.705Z,1004.55
2022-10-08T05:26:40.714Z,1004.59
2022-10-08T05:27:40.684Z,1004.56
2022-10-08T05:28:40.675Z,1004.58
2022-10-08T05:29:40.669Z,1004.55
2022-10-08T05:30:40.669Z,1004.6
2022-10-08T05:31:40.641Z,1004.64
2022-10-08T05:32:40.636Z,1004.6
2022-10-08T05:33:40.663Z,1004.65
2022-10-08T05:34:40.611Z,1004.61
2022-10-08T05:35:40.603Z,1004.63
2022-10-08T05:36:40.688Z,1004.67
2022-10-08T05:37:40.576Z,1004.69
2022-10-08T05:38:40.572Z,1004.68
2022-10-08T05:39:40.560Z,1004.71
2022-10-08T05:40:40.581Z,1004.69
2022-10-08T05:41:40.542Z,1004.7
2022-10-08T05:42:40.542Z,1004.69
2022-10-08T05:43:40.522Z,1004.65
2022-10-08T05:44:40.514Z,1004.61
2022-10-08T05:45:40.496Z,1004.57
2022-10-08T05:46:40.488Z,1004.52
2022-10-08T05:47:40.475Z,1004.38
2022-10-08T05:48:49.296Z,1004.32
2022-10-08T05:49:40.454Z,1004.31
2022-10-08T05:50:40.439Z,1004.34
2022-10-08T05:51:40.436Z,1004.49
2022-10-08T05:52:40.425Z,1004.52
2022-10-08T05:53:40.425Z,1004.55
2022-10-08T05:54:40.400Z,1004.57
2022-10-08T05:55:40.388Z,1004.64
2022-10-08T05:56:40.382Z,1004.65
2022-10-08T05:57:40.369Z,1004.65
2022-10-08T05:58:40.362Z,1004.55
2022-10-08T05:59:40.345Z,1004.52
2022-10-08T06:00:40.334Z,1004.53
2022-10-08T06:01:47.949Z,1004.6
2022-10-08T06:02:40.321Z,1004.63
2022-10-08T06:03:40.311Z,1004.61
2022-10-08T06:04:40.297Z,1004.65
2022-10-08T06:05:40.298Z,1004.6
2022-10-08T06:06:40.276Z,1004.58
2022-10-08T06:07:40.267Z,1004.5
2022-10-08T06:08:40.255Z,1004.59
2022-10-08T06:09:40.245Z,1004.59
2022-10-08T06:10:40.230Z,1004.62
2022-10-08T06:11:40.224Z,1004.71
2022-10-08T06:12:40.224Z,1004.72
2022-10-08T06:13:40.209Z,1004.76
2022-10-08T06:14:40.188Z,1004.74
2022-10-08T06:15:40.202Z,1004.84
2022-10-08T06:16:40.169Z,1004.87
2022-10-08T06:17:40.159Z,1004.9
2022-10-08T06:18:40.154Z,1004.91
2022-10-08T06:19:40.147Z,1004.92
2022-10-08T06:20:40.128Z,1004.98
2022-10-08T06:21:40.113Z,1004.97
2022-10-08T06:22:40.107Z,1005.01
2022-10-08T06:23:40.097Z,1005.05
2022-10-08T06:24:40.091Z,1005.07
2022-10-08T06:25:40.074Z,1005.07
2022-10-08T06:26:40.059Z,1005.13
2022-10-08T06:27:40.054Z,1005.14
2022-10-08T06:28:40.047Z,1005.25
2022-10-08T06:29:40.027Z,1005.29
2022-10-08T06:30:40.030Z,1005.28
2022-10-08T06:31:40.014Z,1005.28
2022-10-08T06:32:39.996Z,1005.34
2022-10-08T06:33:39.989Z,1005.37
2022-10-08T06:34:39.978Z,1005.32
2022-10-08T06:35:39.990Z,1005.34
2022-10-08T06:36:39.954Z,1005.4
2022-10-08T06:37:39.949Z,1005.43
2022-10-08T06:38:39.948Z,1005.4
2022-10-08T06:39:39.921Z,1005.44
2022-10-08T06:40:39.917Z,1005.44
2022-10-08T06:41:39.905Z,1005.45
2022-10-08T06:42:39.898Z,1005.41
2022-10-08T06:43:39.967Z,1005.45
2022-10-08T06:44:39.902Z,1005.48
2022-10-08T06:45:39.869Z,1005.49
2022-10-08T06:46:39.860Z,1005.57
2022-10-08T06:47:39.854Z,1005.55
2022-10-08T06:48:39.855Z,1005.53
2022-10-08T06:49:39.826Z,1005.52
2022-10-08T06:50:39.815Z,1005.56
2022-10-08T06:51:39.797Z,1005.56
2022-10-08T06:52:39.794Z,1005.58
2022-10-08T06:53:39.785Z,1005.63
2022-10-08T06:54:39.788Z,1005.62
2022-10-08T06:55:39.760Z,1005.63
2022-10-08T06:56:39.769Z,1005.62
2022-10-08T06:57:39.739Z,1005.62
2022-10-08T06:58:39.728Z,1005.64
2022-10-08T06:59:39.720Z,1005.67
2022-10-08T07:00:39.703Z,1005.63
2022-10-08T07:01:39.701Z,1005.59
2022-10-08T07:02:39.687Z,1005.69
2022-10-08T07:03:39.673Z,1005.7
2022-10-08T07:04:39.662Z,1005.7
2022-10-08T07:05:39.663Z,1005.7
2022-10-08T07:06:39.642Z,1005.66
2022-10-08T07:07:39.648Z,1005.68
2022-10-08T07:08:39.628Z,1005.68
2022-10-08T07:09:39.620Z,1005.72
2022-10-08T07:10:39.603Z,1005.7
2022-10-08T07:11:39.591Z,1005.74
2022-10-08T07:12:39.579Z,1005.73
2022-10-08T07:13:39.571Z,1005.75
2022-10-08T07:14:39.561Z,1005.75
2022-10-08T07:15:39.549Z,1005.75
2022-10-08T07:16:39.543Z,1005.76
2022-10-08T07:17:39.534Z,1005.84
2022-10-08T07:18:39.515Z,1005.88
2022-10-08T07:19:39.503Z,1005.92
2022-10-08T07:20:39.496Z,1005.94
2022-10-08T07:21:39.485Z,1005.95
2022-10-08T07:22:39.523Z,1005.87
2022-10-08T07:23:39.467Z,1005.98
2022-10-08T07:24:39.458Z,1005.97
2022-10-08T07:25:39.439Z,1005.98
2022-10-08T07:26:39.430Z,1006.06
2022-10-08T07:27:39.420Z,1005.99
2022-10-08T07:28:39.409Z,1006.06
2022-10-08T07:29:39.403Z,1006.08
2022-10-08T07:30:39.391Z,1006.02
2022-10-08T07:31:39.390Z,1006.16
2022-10-08T07:32:39.368Z,1006.08
2022-10-08T07:33:39.364Z,1006.09
2022-10-08T07:34:39.347Z,1006.12
2022-10-08T07:35:39.342Z,1006.09
2022-10-08T07:36:39.333Z,1006.07
2022-10-08T07:37:39.328Z,1006.13
2022-10-08T07:38:39.304Z,1006.16
2022-10-08T07:39:39.288Z,1006.13
2022-10-08T07:40:39.300Z,1006.12
2022-10-08T07:41:39.293Z,1006.15
2022-10-08T07:42:39.286Z,1006.12
2022-10-08T07:43:39.250Z,1006.08
2022-10-08T07:44:39.238Z,1006.14
2022-10-08T07:45:39.226Z,1006.19
2022-10-08T07:46:39.225Z,1006.21
2022-10-08T07:47:39.209Z,1006.18
2022-10-08T07:48:39.205Z,1006.2
2022-10-08T07:49:39.186Z,1006.2
2022-10-08T07:50:39.179Z,1006.21
2022-10-08T07:51:39.172Z,1006.3
2022-10-08T07:52:39.156Z,1006.39
2022-10-08T07:53:39.148Z,1006.34
2022-10-08T07:54:39.142Z,1006.37
2022-10-08T07:55:39.127Z,1006.36
2022-10-08T07:56:39.211Z,1006.42
2022-10-08T07:57:39.108Z,1006.42
2022-10-08T07:58:39.091Z,1006.37
2022-10-08T07:59:39.081Z,1006.45
2022-10-08T08:00:39.073Z,1006.43
2022-10-08T08:01:39.060Z,1006.5
2022-10-08T08:02:39.054Z,1006.45
2022-10-08T08:03:39.040Z,1006.52
2022-10-08T08:04:39.034Z,1006.54
2022-10-08T08:05:39.017Z,1006.51
2022-10-08T08:06:39.006Z,1006.43
2022-10-08T08:07:39.022Z,1006.46
2022-10-08T08:08:38.998Z,1006.47
2022-10-08T08:09:38.998Z,1006.51
2022-10-08T08:10:38.984Z,1006.48
2022-10-08T08:11:39.044Z,1006.52
2022-10-08T08:12:38.945Z,1006.51
2022-10-08T08:13:38.932Z,1006.6
2022-10-08T08:14:38.965Z,1006.54
2022-10-08T08:15:38.928Z,1006.56
2022-10-08T08:16:38.935Z,1006.58
2022-10-08T08:17:38.895Z,1006.53
2022-10-08T08:18:38.926Z,1006.52
2022-10-08T08:19:38.872Z,1006.53
2022-10-08T08:20:38.857Z,1006.51
2022-10-08T08:21:38.850Z,1006.5
2022-10-08T08:22:38.899Z,1006.56
2022-10-08T08:23:38.840Z,1006.54
2022-10-08T08:24:38.818Z,1006.57
2022-10-08T08:25:38.810Z,1006.59
2022-10-08T08:26:38.802Z,1006.63
2022-10-08T08:27:38.788Z,1006.65
2022-10-08T08:28:38.772Z,1006.67
2022-10-08T08:29:38.770Z,1006.61
2022-10-08T08:30:38.750Z,1006.61
2022-10-08T08:31:38.744Z,1006.61
2022-10-08T08:32:38.758Z,1006.61
2022-10-08T08:33:38.765Z,1006.61
2022-10-08T08:34:38.708Z,1006.67
2022-10-08T08:35:38.709Z,1006.62
2022-10-08T08:36:38.718Z,1006.7
2022-10-08T08:37:38.682Z,1006.64
2022-10-08T08:38:38.688Z,1006.64
2022-10-08T08:39:38.654Z,1006.63
2022-10-08T08:40:38.644Z,1006.69
2022-10-08T08:41:38.639Z,1006.7
2022-10-08T08:42:38.633Z,1006.73
2022-10-08T08:43:38.614Z,1006.72
2022-10-08T08:44:38.601Z,1006.76
2022-10-08T08:45:38.602Z,1006.79
2022-10-08T08:46:38.581Z,1006.75
2022-10-08T08:47:38.613Z,1006.81
2022-10-08T08:48:38.577Z,1006.79
2022-10-08T08:49:38.614Z,1006.78
2022-10-08T08:50:38.592Z,1006.8
2022-10-08T08:51:38.544Z,1006.82
2022-10-08T08:52:38.515Z,1006.81
2022-10-08T08:53:38.577Z,1006.85
2022-10-08T08:54:38.492Z,1006.95
2022-10-08T08:55:38.488Z,1006.88
2022-10-08T08:56:38.486Z,1006.97
2022-10-08T08:57:38.483Z,1006.97
2022-10-08T08:58:38.465Z,1006.95
2022-10-08T08:59:38.441Z,1007
2022-10-08T09:00:38.460Z,1006.96
2022-10-08T09:01:38.419Z,1006.97
2022-10-08T09:02:38.426Z,1006.97
2022-10-08T09:03:38.397Z,1006.95
2022-10-08T09:04:38.391Z,1006.89
2022-10-08T09:05:38.432Z,1006.9
2022-10-08T09:06:38.370Z,1006.89
2022-10-08T09:07:38.387Z,1006.95
2022-10-08T09:08:38.397Z,1006.94
2022-10-08T09:09:38.339Z,1006.98
2022-10-08T09:10:38.327Z,1007.04
2022-10-08T09:11:38.326Z,1007.05
2022-10-08T09:12:38.307Z,1007.06
2022-10-08T09:13:38.295Z,1007.06
2022-10-08T09:14:38.285Z,1007.03
2022-10-08T09:15:38.272Z,1007.07
2022-10-08T09:16:38.265Z,1007.04
2022-10-08T09:17:38.269Z,1007.13
2022-10-08T09:18:38.243Z,1007.1
2022-10-08T09:19:38.236Z,1007.09
2022-10-08T09:20:38.290Z,1007.09
2022-10-08T09:21:38.214Z,1007.14
2022-10-08T09:22:38.207Z,1007.17
2022-10-08T09:23:38.234Z,1007.21
2022-10-08T09:24:38.178Z,1007.16
2022-10-08T09:25:38.189Z,1007.1
2022-10-08T09:26:38.161Z,1007.2
2022-10-08T09:27:38.184Z,1007.14
2022-10-08T09:28:38.135Z,1007.11
2022-10-08T09:29:38.131Z,1007.11
2022-10-08T09:30:38.133Z,1007.07
2022-10-08T09:31:38.142Z,1007.16
2022-10-08T09:32:38.097Z,1007.12
2022-10-08T09:33:38.087Z,1007.14
2022-10-08T09:34:38.079Z,1007.1
2022-10-08T09:35:38.090Z,1007.16
2022-10-08T09:36:38.060Z,1007.17
2022-10-08T09:37:38.057Z,1007.18
2022-10-08T09:38:38.036Z,1007.15
2022-10-08T09:39:38.025Z,1007.16
2022-10-08T09:40:38.028Z,1007.16
2022-10-08T09:41:38.011Z,1007.21
2022-10-08T09:42:38.048Z,1007.22
2022-10-08T09:43:37.995Z,1007.24
2022-10-08T09:44:37.980Z,1007.31
2022-10-08T09:45:38.075Z,1007.3
2022-10-08T09:46:37.972Z,1007.26
2022-10-08T09:47:37.973Z,1007.33
2022-10-08T09:48:37.948Z,1007.32
2022-10-08T09:49:37.957Z,1007.3
2022-10-08T09:50:37.914Z,1007.38
2022-10-08T09:51:37.916Z,1007.37
2022-10-08T09:52:37.896Z,1007.44
2022-10-08T09:53:37.924Z,1007.41
2022-10-08T09:54:37.875Z,1007.43
2022-10-08T09:55:37.861Z,1007.4
2022-10-08T09:56:37.852Z,1007.36
2022-10-08T09:57:37.839Z,1007.43
2022-10-08T09:58:37.857Z,1007.39
2022-10-08T09:59:37.829Z,1007.35
2022-10-08T10:00:37.802Z,1007.41
2022-10-08T10:01:37.836Z,1007.33
2022-10-08T10:02:37.789Z,1007.44
2022-10-08T10:03:37.770Z,1007.43
2022-10-08T10:04:37.797Z,1007.34
2022-10-08T10:05:37.752Z,1007.37
2022-10-08T10:06:37.739Z,1007.43
2022-10-08T10:07:37.740Z,1007.38
2022-10-08T10:08:38.508Z,1007.32
2022-10-08T10:09:37.706Z,1007.38
2022-10-08T10:10:37.705Z,1007.33
2022-10-08T10:11:37.689Z,1007.45
2022-10-08T10:12:37.673Z,1007.37
2022-10-08T10:13:37.662Z,1007.48
2022-10-08T10:14:37.655Z,1007.39
2022-10-08T10:15:37.645Z,1007.45
2022-10-08T10:16:37.631Z,1007.48
2022-10-08T10:17:37.694Z,1007.41
2022-10-08T10:18:37.607Z,1007.49
2022-10-08T10:19:37.600Z,1007.47
2022-10-08T10:20:37.606Z,1007.4
2022-10-08T10:21:37.583Z,1007.39
2022-10-08T10:22:37.574Z,1007.37
2022-10-08T10:23:37.561Z,1007.38
2022-10-08T10:24:37.545Z,1007.5
2022-10-08T10:25:37.538Z,1007.39
2022-10-08T10:26:37.542Z,1007.52
2022-10-08T10:27:37.514Z,1007.5
2022-10-08T10:28:37.515Z,1007.49
2022-10-08T10:29:37.558Z,1007.43
2022-10-08T10:30:37.488Z,1007.47
2022-10-08T10:31:37.467Z,1007.57
2022-10-08T10:32:37.463Z,1007.52
2022-10-08T10:33:37.528Z,1007.57
2022-10-08T10:34:37.438Z,1007.53
2022-10-08T10:35:37.424Z,1007.51
2022-10-08T10:36:37.429Z,1007.53
2022-10-08T10:37:37.410Z,1007.59
2022-10-08T10:38:37.393Z,1007.55
2022-10-08T10:39:37.389Z,1007.54
2022-10-08T10:40:37.374Z,1007.55
2022-10-08T10:41:37.365Z,1007.57
2022-10-08T10:42:37.370Z,1007.53
2022-10-08T10:43:37.339Z,1007.55
2022-10-08T10:44:37.975Z,1007.6
2022-10-08T10:45:37.313Z,1007.49
2022-10-08T10:46:37.324Z,1007.54
2022-10-08T10:47:37.339Z,1007.51
2022-10-08T10:48:37.285Z,1007.56
2022-10-08T10:49:37.274Z,1007.53
2022-10-08T10:50:37.262Z,1007.53
2022-10-08T10:51:37.266Z,1007.52
2022-10-08T10:52:37.247Z,1007.51
2022-10-08T10:53:37.231Z,1007.57
2022-10-08T10:54:37.217Z,1007.9
2022-10-08T10:55:37.205Z,1007.48
2022-10-08T10:56:37.197Z,1007.5
2022-10-08T10:57:37.199Z,1007.5
2022-10-08T10:58:37.269Z,1007.47
2022-10-08T10:59:37.166Z,1007.52
2022-10-08T11:00:37.151Z,1007.69
2022-10-08T11:01:37.143Z,1007.46
2022-10-08T11:02:37.129Z,1007.57
2022-10-08T11:03:37.129Z,1007.57
2022-10-08T11:04:37.120Z,1007.55
2022-10-08T11:05:37.093Z,1007.54
2022-10-08T11:06:37.158Z,1007.5
2022-10-08T11:07:38.103Z,1007.53
2022-10-08T11:08:37.084Z,1007.55
2022-10-08T11:09:37.072Z,1007.57
2022-10-08T11:10:37.043Z,1007.92
2022-10-08T11:11:37.036Z,1007.9
2022-10-08T11:12:37.017Z,1007.81
2022-10-08T11:13:37.040Z,1007.8
2022-10-08T11:14:37.025Z,1007.83
2022-10-08T11:15:36.999Z,1007.37
2022-10-08T11:16:36.976Z,1007.39
2022-10-08T11:17:36.983Z,1007.63
2022-10-08T11:18:36.956Z,1007.4
2022-10-08T11:19:36.945Z,1007.56
2022-10-08T11:20:36.941Z,1007.47
2022-10-08T11:21:36.932Z,1007.38
2022-10-08T11:22:36.918Z,1007.27
2022-10-08T11:23:36.911Z,1007.33
2022-10-08T11:24:36.893Z,1007.42
2022-10-08T11:25:36.909Z,1007.44
2022-10-08T11:26:36.873Z,1007.45
2022-10-08T11:27:36.864Z,1007.48
2022-10-08T11:28:36.848Z,1007.58
2022-10-08T11:29:36.845Z,1007.51
2022-10-08T11:30:36.833Z,1007.5
2022-10-08T11:31:36.817Z,1007.51
2022-10-08T11:32:36.809Z,1007.54
2022-10-08T11:33:36.796Z,1007.47
2022-10-08T11:34:36.785Z,1007.52
2022-10-08T11:35:36.775Z,1007.56
2022-10-08T11:36:36.790Z,1007.54
2022-10-08T11:37:36.766Z,1007.52
2022-10-08T11:38:36.743Z,1007.53
2022-10-08T11:39:36.731Z,1007.97
2022-10-08T11:40:36.726Z,1007.85
2022-10-08T11:41:36.711Z,1007.86
2022-10-08T11:42:36.720Z,1007.87
2022-10-08T11:43:36.694Z,1007.81
2022-10-08T11:44:36.683Z,1007.9
2022-10-08T11:45:36.678Z,1007.83
2022-10-08T11:46:36.672Z,1007.93
2022-10-08T11:47:36.651Z,1007.87
2022-10-08T11:48:36.639Z,1007.84
2022-10-08T11:49:36.637Z,1007.81
2022-10-08T11:50:36.637Z,1007.29
2022-10-08T11:51:36.621Z,1007.29
2022-10-08T11:52:36.599Z,1007.35
2022-10-08T11:53:36.587Z,1007.43
2022-10-08T11:54:36.582Z,1007.43
2022-10-08T11:55:36.583Z,1007.28
2022-10-08T11:56:36.562Z,1007.4
2022-10-08T11:57:36.561Z,1007.4
2022-10-08T11:58:36.536Z,1007.41
2022-10-08T11:59:36.525Z,1007.37
2022-10-08T12:00:36.510Z,1007.38
2022-10-08T12:01:36.502Z,1007.45
2022-10-08T12:02:36.494Z,1007.4
2022-10-08T12:03:36.482Z,1007.44
2022-10-08T12:04:36.471Z,1007.38
2022-10-08T12:05:36.458Z,1007.52
2022-10-08T12:06:36.496Z,1007.53
2022-10-08T12:07:36.436Z,1007.44
2022-10-08T12:08:36.429Z,1007.46
2022-10-08T12:09:36.418Z,1007.55